createdAt,value
2018-11-12T00:00:34.558Z,1.20
2018-11-12T00:03:03.547Z,1.00
2018-11-12T00:05:32.501Z,1.10
2018-11-12T00:08:01.476Z,1.03
2018-11-12T00:10:30.431Z,1.00
2018-11-12T00:12:59.395Z,1.20
2018-11-12T00:15:28.328Z,1.00
2018-11-12T00:17:57.280Z,0.90
2018-11-12T00:20:26.263Z,0.90
2018-11-12T00:22:55.206Z,0.80
2018-11-12T00:25:24.197Z,1.10
2018-11-12T00:27:53.125Z,1.10
2018-11-12T00:30:22.069Z,0.90
2018-11-12T00:32:50.999Z,1.07
2018-11-12T00:35:20.594Z,0.90
2018-11-12T00:37:49.524Z,1.00
2018-11-12T00:40:18.746Z,0.90
2018-11-12T00:42:47.941Z,1.30
2018-11-12T00:45:16.927Z,1.27
2018-11-12T00:47:45.845Z,0.87
2018-11-12T00:50:16.897Z,0.90
2018-11-12T00:52:46.061Z,1.00
2018-11-12T00:55:15.907Z,1.00
2018-11-12T00:57:45.396Z,0.90
2018-11-12T01:00:16.368Z,1.00
2018-11-12T01:02:46.521Z,1.30
2018-11-12T01:05:16.115Z,0.90
2018-11-12T01:07:45.347Z,1.00
2018-11-12T01:10:15.390Z,1.40
2018-11-12T01:12:44.807Z,1.10
2018-11-12T01:15:17.078Z,1.00
2018-11-12T01:17:46.228Z,1.00
2018-11-12T01:20:16.166Z,0.90
2018-11-12T01:22:45.100Z,1.23
2018-11-12T01:25:14.555Z,1.00
2018-11-12T01:27:44.143Z,0.97
2018-11-12T01:30:19.547Z,1.23
2018-11-12T01:32:48.549Z,1.13
2018-11-12T01:35:18.313Z,1.10
2018-11-12T01:37:47.249Z,1.17
2018-11-12T01:40:16.818Z,1.13
2018-11-12T01:42:45.995Z,1.10
2018-11-12T01:45:16.761Z,1.20
2018-11-12T01:47:46.875Z,1.03
2018-11-12T01:50:16.397Z,1.30
2018-11-12T01:52:45.960Z,1.47
2018-11-12T01:55:16.099Z,1.30
2018-11-12T01:57:45.384Z,1.00
2018-11-12T02:00:18.410Z,1.30
2018-11-12T02:02:48.698Z,1.23
2018-11-12T02:05:18.112Z,1.40
2018-11-12T02:07:47.084Z,1.50
2018-11-12T02:10:17.249Z,1.43
2018-11-12T02:12:46.193Z,1.40
2018-11-12T02:15:17.314Z,1.60
2018-11-12T02:17:46.955Z,1.40
2018-11-12T02:20:17.098Z,1.40
2018-11-12T02:22:47.116Z,1.33
2018-11-12T02:25:16.517Z,1.43
2018-11-12T02:27:45.475Z,1.40
2018-11-12T02:30:17.470Z,1.70
2018-11-12T02:32:46.454Z,1.30
2018-11-12T02:35:15.411Z,1.80
2018-11-12T02:37:44.401Z,1.37
2018-11-12T02:40:13.740Z,1.30
2018-11-12T02:42:43.681Z,1.30
2018-11-12T02:45:13.672Z,1.50
2018-11-12T02:47:43.509Z,1.40
2018-11-12T02:50:14.018Z,1.20
2018-11-12T02:52:43.228Z,1.60
2018-11-12T02:55:14.352Z,1.50
2018-11-12T02:57:44.184Z,1.80
2018-11-12T03:00:15.416Z,1.50
2018-11-12T03:02:44.835Z,1.67
2018-11-12T03:05:13.939Z,1.73
2018-11-12T03:07:43.151Z,2.33
2018-11-12T03:10:16.043Z,1.40
2018-11-12T03:12:45.021Z,1.50
2018-11-12T03:15:14.810Z,2.00
2018-11-12T03:17:44.423Z,1.33
2018-11-12T03:20:17.615Z,1.50
2018-11-12T03:22:46.581Z,1.47
2018-11-12T03:25:16.871Z,1.30
2018-11-12T03:27:46.443Z,1.20
2018-11-12T03:30:16.680Z,1.20
2018-11-12T03:32:46.495Z,1.20
2018-11-12T03:35:15.764Z,1.20
2018-11-12T03:37:46.284Z,1.37
2018-11-12T03:40:17.410Z,1.50
2018-11-12T03:42:46.849Z,1.40
2018-11-12T03:45:17.078Z,1.30
2018-11-12T03:47:46.020Z,1.57
2018-11-12T03:50:18.283Z,1.90
2018-11-12T03:52:47.243Z,1.40
2018-11-12T03:55:17.456Z,1.73
2018-11-12T03:57:46.433Z,1.53
2018-11-12T04:00:17.669Z,1.60
2018-11-12T04:02:46.586Z,2.30
2018-11-12T04:05:15.541Z,1.80
2018-11-12T04:07:44.510Z,1.83
2018-11-12T04:10:16.950Z,2.47
2018-11-12T04:12:45.904Z,1.80
2018-11-12T04:15:17.057Z,2.00
2018-11-12T04:17:46.032Z,2.00
2018-11-12T04:20:17.188Z,2.37
2018-11-12T04:22:51.747Z,2.50
2018-11-12T04:25:20.681Z,2.33
2018-11-12T04:27:49.720Z,3.30
2018-11-12T04:30:18.649Z,3.60
2018-11-12T04:32:47.656Z,3.47
2018-11-12T04:35:17.519Z,3.70
2018-11-12T04:37:48.014Z,3.80
2018-11-12T04:40:18.188Z,3.60
2018-11-12T04:42:47.659Z,3.87
2018-11-12T04:45:17.801Z,3.20
2018-11-12T04:47:47.634Z,3.60
2018-11-12T04:50:18.453Z,4.70
2018-11-12T04:52:47.515Z,4.63
2018-11-12T04:55:18.359Z,4.30
2018-11-12T04:57:47.564Z,5.03
2018-11-12T05:00:19.698Z,5.30
2018-11-12T05:02:48.706Z,6.00
2018-11-12T05:05:18.968Z,6.13
2018-11-12T05:07:47.907Z,6.03
2018-11-12T05:10:18.293Z,5.97
2018-11-12T05:12:47.987Z,5.63
2018-11-12T05:15:19.160Z,6.57
2018-11-12T05:17:48.156Z,5.80
2018-11-12T05:20:18.690Z,6.30
2018-11-12T05:22:48.241Z,7.20
2018-11-12T05:25:17.245Z,6.27
2018-11-12T05:27:46.181Z,7.40
2018-11-12T05:30:19.458Z,6.50
2018-11-12T05:32:48.412Z,6.70
2018-11-12T05:35:18.686Z,6.90
2018-11-12T05:37:47.747Z,7.67
2018-11-12T05:40:18.125Z,6.87
2018-11-12T05:42:47.096Z,6.70
2018-11-12T05:45:17.217Z,6.30
2018-11-12T05:47:46.166Z,6.30
2018-11-12T05:50:16.938Z,5.80
2018-11-12T05:52:47.040Z,5.17
2018-11-12T05:55:17.217Z,5.47
2018-11-12T05:57:46.570Z,6.13
2018-11-12T06:00:20.020Z,7.27
2018-11-12T06:02:49.017Z,6.23
2018-11-12T06:05:17.966Z,6.67
2018-11-12T06:07:46.912Z,6.40
2018-11-12T06:10:18.387Z,6.83
2018-11-12T06:12:47.594Z,6.77
2018-11-12T06:15:16.977Z,6.50
2018-11-12T06:17:46.803Z,6.77
2018-11-12T06:20:19.935Z,7.53
2018-11-12T06:22:48.963Z,7.90
2018-11-12T06:25:20.259Z,7.23
2018-11-12T06:27:49.555Z,7.27
2018-11-12T06:30:19.905Z,6.80
2018-11-12T06:32:48.922Z,7.90
2018-11-12T06:35:18.373Z,7.03
2018-11-12T06:37:48.097Z,7.30
2018-11-12T06:40:19.243Z,7.80
2018-11-12T06:42:48.284Z,7.63
2018-11-12T06:45:19.130Z,7.70
2018-11-12T06:47:48.987Z,8.30
2018-11-12T06:50:19.270Z,7.27
2018-11-12T06:52:48.276Z,7.80
2018-11-12T06:55:17.780Z,7.90
2018-11-12T06:57:47.209Z,8.40
2018-11-12T07:00:18.476Z,7.60
2018-11-12T07:02:47.472Z,7.73
2018-11-12T07:05:18.361Z,7.23
2018-11-12T07:07:48.437Z,7.23
2018-11-12T07:10:18.829Z,7.80
2018-11-12T07:12:48.551Z,9.00
2018-11-12T07:15:18.758Z,6.60
2018-11-12T07:17:48.171Z,7.70
2018-11-12T07:20:18.788Z,7.63
2018-11-12T07:22:48.012Z,9.00
2018-11-12T07:25:18.257Z,8.37
2018-11-12T07:27:47.185Z,8.10
2018-11-12T07:30:18.490Z,8.00
2018-11-12T07:32:48.183Z,8.77
2018-11-12T07:35:17.759Z,7.90
2018-11-12T07:37:48.007Z,7.83
2018-11-12T07:40:17.598Z,7.53
2018-11-12T07:42:46.655Z,8.00
2018-11-12T07:45:18.666Z,7.17
2018-11-12T07:47:48.581Z,7.23
2018-11-12T07:50:19.633Z,7.90
2018-11-12T07:52:48.612Z,6.43
2018-11-12T07:55:20.076Z,7.10
2018-11-12T07:57:50.405Z,7.33
2018-11-12T08:00:21.251Z,7.03
2018-11-12T08:02:51.229Z,7.50
2018-11-12T08:05:20.469Z,7.30
2018-11-12T08:07:49.452Z,7.17
2018-11-12T08:10:19.388Z,7.27
2018-11-12T08:12:48.657Z,8.30
2018-11-12T08:15:18.996Z,7.90
2018-11-12T08:17:48.373Z,8.23
2018-11-12T08:20:21.563Z,9.10
2018-11-12T08:22:52.653Z,8.60
2018-11-12T08:25:22.556Z,9.70
2018-11-12T08:27:51.596Z,8.40
2018-11-12T08:30:24.716Z,9.40
2018-11-12T08:32:55.677Z,9.20
2018-11-12T08:35:24.749Z,9.33
2018-11-12T08:37:59.478Z,8.63
2018-11-12T08:40:29.551Z,7.93
2018-11-12T08:42:58.574Z,10.03
2018-11-12T08:45:27.653Z,8.90
2018-11-12T08:47:57.251Z,8.57
2018-11-12T08:50:26.990Z,10.63
2018-11-12T08:52:56.735Z,9.00
2018-11-12T08:55:30.191Z,9.67
2018-11-12T08:58:01.485Z,8.80
2018-11-12T09:00:30.546Z,9.50
2018-11-12T09:02:59.520Z,8.90
2018-11-12T09:05:29.992Z,10.03
2018-11-12T09:08:00.232Z,9.73
2018-11-12T09:10:31.455Z,9.20
2018-11-12T09:13:00.444Z,9.70
2018-11-12T09:15:29.438Z,9.60
2018-11-12T09:17:58.569Z,8.90
2018-11-12T09:20:28.569Z,10.00
2018-11-12T09:22:57.548Z,8.40
2018-11-12T09:25:28.905Z,9.03
2018-11-12T09:28:00.444Z,8.03
2018-11-12T09:30:31.716Z,6.83
2018-11-12T09:33:18.616Z,7.77
2018-11-12T09:35:56.716Z,8.23
2018-11-12T09:38:47.449Z,7.20
2018-11-12T09:41:17.567Z,7.57
2018-11-12T09:47:07.129Z,7.90
2018-11-12T09:49:36.320Z,8.20
2018-11-12T09:52:05.944Z,7.73
2018-11-12T09:54:35.062Z,7.07
2018-11-12T09:57:11.410Z,7.03
2018-11-12T10:02:26.304Z,8.37
2018-11-12T10:04:55.808Z,6.67
2018-11-12T10:07:30.037Z,7.33
2018-11-12T10:09:59.684Z,6.73
2018-11-12T10:12:29.187Z,7.37
2018-11-12T10:14:57.698Z,6.70
2018-11-12T10:17:27.191Z,6.57
2018-11-12T10:19:53.219Z,6.50
2018-11-12T10:22:22.168Z,6.40
2018-11-12T10:24:51.165Z,6.93
2018-11-12T10:27:20.125Z,7.20
2018-11-12T10:29:49.771Z,6.90
2018-11-12T10:32:19.063Z,6.30
2018-11-12T10:34:48.060Z,6.97
2018-11-12T10:37:17.041Z,6.20
2018-11-12T10:39:46.056Z,5.40
2018-11-12T10:42:14.975Z,5.80
2018-11-12T10:44:43.928Z,6.30
2018-11-12T10:47:12.888Z,5.97
2018-11-12T10:49:41.837Z,5.30
2018-11-12T10:52:13.814Z,6.13
2018-11-12T10:54:44.704Z,5.27
2018-11-12T10:57:13.665Z,5.60
2018-11-12T10:59:42.667Z,5.10
2018-11-12T11:02:17.026Z,4.90
2018-11-12T11:04:45.962Z,5.20
2018-11-12T11:07:14.931Z,5.20
2018-11-12T11:09:43.864Z,4.70
2018-11-12T11:12:12.831Z,5.40
2018-11-12T11:14:41.892Z,4.70
2018-11-12T11:17:10.877Z,4.10
2018-11-12T11:19:39.843Z,4.30
2018-11-12T11:22:08.767Z,4.23
2018-11-12T11:24:37.687Z,4.43
2018-11-12T11:27:06.677Z,4.53
2018-11-12T11:29:35.632Z,4.63
2018-11-12T11:32:04.664Z,4.70
2018-11-12T11:34:33.685Z,4.10
2018-11-12T11:37:02.672Z,4.53
2018-11-12T11:39:32.180Z,5.30
2018-11-12T11:42:01.152Z,4.70
2018-11-12T11:44:30.105Z,4.60
2018-11-12T11:46:59.062Z,4.23
2018-11-12T11:49:27.998Z,4.33
2018-11-12T11:51:56.952Z,4.93
2018-11-12T11:54:25.893Z,4.00
2018-11-12T11:56:54.977Z,4.47
2018-11-12T11:59:23.869Z,4.20
2018-11-12T12:01:52.825Z,4.57
2018-11-12T12:04:21.772Z,4.40
2018-11-12T12:06:50.721Z,4.70
2018-11-12T12:09:19.711Z,4.00
2018-11-12T12:11:48.666Z,4.17
2018-11-12T12:14:17.701Z,3.67
2018-11-12T12:16:46.682Z,3.80
2018-11-12T12:19:15.651Z,4.00
2018-11-12T12:21:45.287Z,2.83
2018-11-12T12:24:14.318Z,3.07
2018-11-12T12:26:43.450Z,3.73
2018-11-12T12:29:12.528Z,3.10
2018-11-12T12:31:41.540Z,3.20
2018-11-12T12:34:10.498Z,3.17
2018-11-12T12:36:39.461Z,3.30
2018-11-12T12:39:09.916Z,2.70
2018-11-12T12:41:38.853Z,2.97
2018-11-12T12:44:07.872Z,3.70
2018-11-12T12:46:36.770Z,3.03
2018-11-12T12:49:05.885Z,2.80
2018-11-12T12:51:34.935Z,3.07
2018-11-12T12:54:03.894Z,2.80
2018-11-12T12:56:32.881Z,3.23
2018-11-12T12:59:02.624Z,2.53
2018-11-12T13:01:31.648Z,3.17
2018-11-12T13:04:00.523Z,3.37
2018-11-12T13:06:29.513Z,3.10
2018-11-12T13:08:58.415Z,3.27
2018-11-12T13:11:27.360Z,3.20
2018-11-12T13:13:56.405Z,3.33
2018-11-12T13:16:25.290Z,3.00
2018-11-12T13:18:54.238Z,3.30
2018-11-12T13:21:23.293Z,4.10
2018-11-12T13:23:52.211Z,2.87
2018-11-12T13:26:21.219Z,3.30
2018-11-12T13:28:50.109Z,3.20
2018-11-12T13:31:19.069Z,3.30
2018-11-12T13:33:50.665Z,3.90
2018-11-12T13:36:19.623Z,2.67
2018-11-12T13:38:48.602Z,3.13
2018-11-12T13:41:17.549Z,2.90
2018-11-12T13:43:46.493Z,3.23
2018-11-12T13:46:15.509Z,2.80
2018-11-12T13:48:44.804Z,2.80
2018-11-12T13:51:13.742Z,2.80
2018-11-12T13:53:42.678Z,3.10
2018-11-12T13:56:11.630Z,3.77
2018-11-12T13:58:40.590Z,2.67
2018-11-12T14:01:09.553Z,3.57
2018-11-12T14:03:38.491Z,2.90
2018-11-12T14:06:07.465Z,2.90
2018-11-12T14:08:36.427Z,2.87
2018-11-12T14:11:05.771Z,2.93
2018-11-12T14:13:34.696Z,2.97
2018-11-12T14:16:03.664Z,2.80
2018-11-12T14:18:32.770Z,2.80
2018-11-12T14:21:01.830Z,2.57
2018-11-12T14:23:30.709Z,2.30
2018-11-12T14:25:59.704Z,2.50
2018-11-12T14:28:28.768Z,2.50
2018-11-12T14:30:57.610Z,2.60
2018-11-12T14:33:26.587Z,2.27
2018-11-12T14:35:55.618Z,2.70
2018-11-12T14:38:24.531Z,2.60
2018-11-12T14:40:53.507Z,2.30
2018-11-12T14:43:22.457Z,2.33
2018-11-12T14:45:51.494Z,3.07
2018-11-12T14:48:20.471Z,2.70
2018-11-12T14:50:49.470Z,2.53
2018-11-12T14:53:18.392Z,2.73
2018-11-12T14:55:47.393Z,2.37
2018-11-12T14:58:16.436Z,2.20
2018-11-12T15:00:45.345Z,3.07
2018-11-12T15:03:14.311Z,2.33
2018-11-12T15:05:43.308Z,2.10
2018-11-12T15:08:12.257Z,2.30
2018-11-12T15:10:41.195Z,2.70
2018-11-12T15:13:10.689Z,2.37
2018-11-12T15:15:39.611Z,2.50
2018-11-12T15:18:08.582Z,2.07
2018-11-12T15:20:37.514Z,2.20
2018-11-12T15:23:06.478Z,2.90
2018-11-12T15:25:35.412Z,2.40
2018-11-12T15:28:04.652Z,2.23
2018-11-12T15:30:33.577Z,2.67
2018-11-12T15:33:02.536Z,2.40
2018-11-12T15:35:31.469Z,2.57
2018-11-12T15:38:00.886Z,3.00
2018-11-12T15:40:29.851Z,2.20
2018-11-12T15:42:58.841Z,2.93
2018-11-12T15:45:27.773Z,2.53
2018-11-12T15:47:56.733Z,2.40
2018-11-12T15:50:34.265Z,2.40
2018-11-12T15:53:03.221Z,2.87
2018-11-12T15:55:32.171Z,2.60
2018-11-12T15:58:01.199Z,2.40
2018-11-12T16:00:30.137Z,2.67
2018-11-12T16:02:59.105Z,2.83
2018-11-12T16:05:28.055Z,2.60
2018-11-12T16:07:57.022Z,2.50
2018-11-12T16:10:25.957Z,2.50
2018-11-12T16:12:54.925Z,2.50
2018-11-12T16:15:23.856Z,2.20
2018-11-12T16:17:52.824Z,2.43
2018-11-12T16:20:25.270Z,2.53
2018-11-12T16:22:54.732Z,2.30
2018-11-12T16:25:24.181Z,2.77
2018-11-12T16:27:53.943Z,2.03
2018-11-12T16:30:22.904Z,2.43
2018-11-12T16:32:51.924Z,2.27
2018-11-12T16:35:22.398Z,2.50
2018-11-12T16:37:52.330Z,2.80
2018-11-12T16:40:21.366Z,2.20
2018-11-12T16:42:50.754Z,2.87
2018-11-12T16:45:19.716Z,2.90
2018-11-12T16:47:48.796Z,2.70
2018-11-12T16:50:18.325Z,2.30
2018-11-12T16:52:47.393Z,2.90
2018-11-12T16:55:17.928Z,2.30
2018-11-12T16:57:47.173Z,2.30
2018-11-12T17:00:17.769Z,2.60
2018-11-12T17:02:47.434Z,2.50
2018-11-12T17:05:18.825Z,2.70
2018-11-12T17:07:47.782Z,5.03
2018-11-12T17:10:18.065Z,2.80
2018-11-12T17:12:47.951Z,2.30
2018-11-12T17:15:17.179Z,2.15
2018-11-12T17:17:46.562Z,2.33
2018-11-12T17:20:17.982Z,2.40
2018-11-12T17:22:46.922Z,2.47
2018-11-12T17:25:16.544Z,3.70
2018-11-12T17:27:45.807Z,2.97
2018-11-12T17:30:16.974Z,2.70
2018-11-12T17:32:46.473Z,2.00
2018-11-12T17:35:16.704Z,2.30
2018-11-12T17:37:45.701Z,2.33
2018-11-12T17:40:17.839Z,2.40
2018-11-12T17:42:47.764Z,2.33
2018-11-12T17:45:18.944Z,2.30
2018-11-12T17:47:48.978Z,2.50
2018-11-12T17:50:18.713Z,2.67
2018-11-12T17:52:47.680Z,2.40
2018-11-12T17:55:16.640Z,2.60
2018-11-12T17:57:45.610Z,2.70
2018-11-12T18:00:32.614Z,2.60
2018-11-12T18:03:01.570Z,2.50
2018-11-12T18:05:30.549Z,2.40
2018-11-12T18:07:59.534Z,2.70
2018-11-12T18:10:28.492Z,2.87
2018-11-12T18:12:57.458Z,2.33
2018-11-12T18:15:26.435Z,2.43
2018-11-12T18:17:56.164Z,2.83
2018-11-12T18:20:26.564Z,2.43
2018-11-12T18:22:56.074Z,2.73
2018-11-12T18:25:25.018Z,2.40
2018-11-12T18:27:54.633Z,2.30
2018-11-12T18:30:25.351Z,2.40
2018-11-12T18:32:55.096Z,2.70
2018-11-12T18:35:24.089Z,2.60
2018-11-12T18:37:53.110Z,2.70
2018-11-12T18:40:23.619Z,2.20
2018-11-12T18:42:52.556Z,2.37
2018-11-12T18:45:22.856Z,3.00
2018-11-12T18:47:51.810Z,4.40
2018-11-12T18:50:23.185Z,2.57
2018-11-12T18:52:52.132Z,2.60
2018-11-12T18:55:21.105Z,2.60
2018-11-12T18:57:50.446Z,3.20
2018-11-12T19:00:23.354Z,3.70
2018-11-12T19:02:52.619Z,4.00
2018-11-12T19:05:24.166Z,5.10
2018-11-12T19:07:54.209Z,3.50
2018-11-12T19:10:32.886Z,3.23
2018-11-12T19:13:02.582Z,2.70
2018-11-12T19:15:34.419Z,3.87
2018-11-12T19:18:07.356Z,5.50
2018-11-12T19:20:36.325Z,8.53
2018-11-12T19:23:05.740Z,4.00
2018-11-12T19:25:34.678Z,4.43
2018-11-12T19:28:03.670Z,3.30
2018-11-12T19:30:32.752Z,2.87
2018-11-12T19:33:01.733Z,3.70
2018-11-12T19:35:31.885Z,3.03
2018-11-12T19:38:00.830Z,2.80
2018-11-12T19:40:30.996Z,2.93
2018-11-12T19:42:59.833Z,4.23
2018-11-12T19:45:28.826Z,6.70
2018-11-12T19:47:57.900Z,9.00
2018-11-12T19:50:28.088Z,10.90
2018-11-12T19:52:57.995Z,11.70
2018-11-12T19:55:26.938Z,12.97
2018-11-12T19:57:55.960Z,16.50
2018-11-12T20:00:26.190Z,15.83
2018-11-12T20:02:56.324Z,17.40
2018-11-12T20:05:25.286Z,17.30
2018-11-12T20:07:54.262Z,17.20
2018-11-12T20:10:23.705Z,18.97
2018-11-12T20:12:52.788Z,18.77
2018-11-12T20:15:22.875Z,20.53
2018-11-12T20:17:52.640Z,19.63
2018-11-12T20:20:24.055Z,16.30
2018-11-12T20:22:53.397Z,18.83
2018-11-12T20:25:22.488Z,17.17
2018-11-12T20:27:54.012Z,17.07
2018-11-12T20:30:26.441Z,18.53
2018-11-12T20:32:55.470Z,17.00
2018-11-12T20:35:24.692Z,18.77
2018-11-12T20:37:53.689Z,17.00
2018-11-12T20:40:22.672Z,18.40
2018-11-12T20:42:51.708Z,15.30
2018-11-12T20:45:21.493Z,14.93
2018-11-12T20:47:52.591Z,13.80
2018-11-12T20:50:22.244Z,12.63
2018-11-12T20:52:51.845Z,13.30
2018-11-12T20:55:20.988Z,13.97
2018-11-12T20:57:49.946Z,14.00
2018-11-12T21:00:20.344Z,10.87
2018-11-12T21:02:50.415Z,10.60
2018-11-12T21:05:21.037Z,11.00
2018-11-12T21:07:50.070Z,10.73
2018-11-12T21:10:19.532Z,11.70
2018-11-12T21:12:49.048Z,10.00
2018-11-12T21:15:18.881Z,10.03
2018-11-12T21:17:47.824Z,9.80
2018-11-12T21:20:18.276Z,9.63
2018-11-12T21:22:47.231Z,9.80
2018-11-12T21:25:17.490Z,10.07
2018-11-12T21:27:46.416Z,9.07
2018-11-12T21:30:18.355Z,8.93
2018-11-12T21:32:47.492Z,10.47
2018-11-12T21:35:16.473Z,9.87
2018-11-12T21:37:45.737Z,9.33
2018-11-12T21:40:16.483Z,10.20
2018-11-12T21:42:45.439Z,9.70
2018-11-12T21:45:18.651Z,9.10
2018-11-12T21:47:47.646Z,9.27
2018-11-12T21:50:17.885Z,9.60
2018-11-12T21:52:46.838Z,9.97
2018-11-12T21:55:15.808Z,10.13
2018-11-12T21:57:45.142Z,11.27
2018-11-12T22:00:22.160Z,10.03
2018-11-12T22:02:52.561Z,11.20
2018-11-12T22:05:21.774Z,10.80
2018-11-12T22:07:50.735Z,9.93
2018-11-12T22:10:19.997Z,10.23
2018-11-12T22:12:50.623Z,10.20
2018-11-12T22:15:20.469Z,8.83
2018-11-12T22:17:49.832Z,8.10
2018-11-12T22:20:20.027Z,7.97
2018-11-12T22:22:48.961Z,7.17
2018-11-12T22:25:19.161Z,8.57
2018-11-12T22:27:48.946Z,8.33
2018-11-12T22:30:20.445Z,6.10
2018-11-12T22:32:50.612Z,6.47
2018-11-12T22:35:19.619Z,6.20
2018-11-12T22:37:48.935Z,5.43
2018-11-12T22:40:18.557Z,6.30
2018-11-12T22:42:48.979Z,6.07
2018-11-12T22:45:20.028Z,7.00
2018-11-12T22:47:49.388Z,6.77
2018-11-12T22:50:18.384Z,8.17
2018-11-12T22:52:47.410Z,8.67
2018-11-12T22:55:17.424Z,9.50
2018-11-12T22:57:46.481Z,9.20
2018-11-12T23:00:22.815Z,9.60
2018-11-12T23:02:51.968Z,9.10
2018-11-12T23:05:21.297Z,8.93
2018-11-12T23:07:50.653Z,9.00
2018-11-12T23:10:19.972Z,8.93
2018-11-12T23:12:48.940Z,9.00
2018-11-12T23:15:18.524Z,8.20
2018-11-12T23:17:47.503Z,9.53
2018-11-12T23:20:19.114Z,8.50
2018-11-12T23:22:48.659Z,9.20
2018-11-12T23:25:17.899Z,8.47
2018-11-12T23:27:47.547Z,9.80
2018-11-12T23:30:17.640Z,9.03
2018-11-12T23:32:46.628Z,7.97
2018-11-12T23:35:18.690Z,8.80
2018-11-12T23:37:48.255Z,8.97
2018-11-12T23:40:17.277Z,9.27
2018-11-12T23:42:46.833Z,9.60
2018-11-12T23:45:15.819Z,9.60
2018-11-12T23:47:44.793Z,9.80
2018-11-12T23:50:17.240Z,8.33
2018-11-12T23:52:47.102Z,8.70
2018-11-12T23:55:16.280Z,7.97
2018-11-12T23:57:46.120Z,7.47
